Time;durP1;ratioP1;P1;durP2;ratioP2;P2;SDS_P1;SDS_P2;PMS_P1;PMS_P2;Temp;Humidity;BMP_temperature;BMP_pressure;BME280_temperature;BME280_humidity;BME280_pressure;Samples;Min_cycle;Max_cycle;Signal;HPM_P1;HPM_P2
2022/10/23 00:00:02;;;;;;;34.58;21.40;;;;;;;12.46;65.58;100214.25;7709994;32;37020;-70
2022/10/23 00:04:20;;;;;;;36.55;22.45;;;;;;;12.45;65.53;100207.13;7713000;32;38658;-70
2022/10/23 00:08:37;;;;;;;35.40;20.58;;;;;;;12.53;64.40;100213.97;7712615;32;39816;-69
2022/10/23 00:12:54;;;;;;;40.38;22.08;;;;;;;12.39;64.76;100225.47;7712801;32;38148;-70
2022/10/23 00:17:11;;;;;;;33.13;21.58;;;;;;;12.26;65.33;100223.25;7712849;32;37050;-69
2022/10/23 00:21:27;;;;;;;33.13;21.77;;;;;;;12.51;64.66;100218.91;7712614;32;40239;-68
2022/10/23 00:25:43;;;;;;;38.50;24.17;;;;;;;12.28;65.27;100223.84;7698411;32;39867;-70
2022/10/23 00:30:00;;;;;;;39.45;23.17;;;;;;;12.30;66.03;100218.09;7712486;32;38871;-71
2022/10/23 00:34:18;;;;;;;39.03;24.45;;;;;;;11.62;69.33;100227.22;7712628;32;37462;-71
2022/10/23 00:38:34;;;;;;;37.85;23.42;;;;;;;11.87;68.53;100228.41;7712404;32;38984;-70
2022/10/23 00:42:51;;;;;;;44.10;23.77;;;;;;;11.86;69.34;100227.56;7712402;32;39998;-70
2022/10/23 00:47:07;;;;;;;42.62;25.65;;;;;;;11.91;69.32;100235.78;7712414;32;38111;-69
2022/10/23 00:51:26;;;;;;;43.83;26.42;;;;;;;11.69;71.28;100243.34;7712436;32;38000;-70
2022/10/23 00:55:45;;;;;;;41.53;25.20;;;;;;;11.63;72.31;100240.59;7711463;32;39375;-69
2022/10/23 01:00:02;;;;;;;41.75;25.17;;;;;;;11.67;73.40;100251.00;7711185;32;40822;-70
2022/10/23 01:04:18;;;;;;;46.80;27.33;;;;;;;11.46;74.72;100261.84;7711963;32;38544;-71
2022/10/23 01:08:47;;;;;;;42.17;25.73;;;;;;;11.54;75.08;100285.06;7698572;32;38047;-70
2022/10/23 01:13:22;;;;;;;44.25;25.70;;;;;;;12.06;73.33;100291.59;7699833;32;40165;-70
2022/10/23 01:18:01;;;;;;;42.28;25.95;;;;;;;11.97;73.41;100291.25;7712189;32;39979;-70
2022/10/23 01:22:35;;;;;;;43.10;25.58;;;;;;;11.96;72.44;100286.91;7694806;32;37999;-70
2022/10/23 01:27:13;;;;;;;41.70;24.55;;;;;;;12.15;72.03;100295.44;7712103;32;37281;-70
2022/10/23 01:31:38;;;;;;;42.20;24.42;;;;;;;12.19;72.01;100297.38;7712068;32;40120;-70
2022/10/23 01:36:02;;;;;;;45.90;24.63;;;;;;;11.48;74.81;100288.88;7698515;32;40769;-70
2022/10/23 01:40:33;;;;;;;44.00;26.83;;;;;;;11.85;73.24;100291.50;7710675;32;38885;-70
2022/10/23 01:45:00;;;;;;;41.37;23.95;;;;;;;11.69;73.86;100308.91;7710420;32;37365;-70
2022/10/23 01:49:16;;;;;;;39.75;23.92;;;;;;;12.29;71.57;100304.75;7699168;32;40078;-70
2022/10/23 01:53:37;;;;;;;39.40;23.40;;;;;;;12.61;69.78;100306.44;7697927;32;40708;-71
2022/10/23 01:57:53;;;;;;;37.95;24.30;;;;;;;12.58;70.08;100302.31;7698218;32;38880;-70
2022/10/23 02:02:11;;;;;;;43.35;24.80;;;;;;;12.50;70.34;100302.03;7711263;32;37548;-70
2022/10/23 02:06:28;;;;;;;41.28;23.00;;;;;;;12.53;69.82;100301.50;7710604;32;39575;-70
2022/10/23 02:10:51;;;;;;;35.97;23.55;;;;;;;12.10;71.60;100309.88;7711564;32;39750;-70
2022/10/23 02:15:13;;;;;;;37.13;23.42;;;;;;;12.21;71.62;100308.00;7710157;32;38680;-71
2022/10/23 02:19:40;;;;;;;38.40;23.12;;;;;;;12.27;71.58;100303.38;7711548;32;37781;-71
2022/10/23 02:24:04;;;;;;;37.78;23.58;;;;;;;12.59;69.96;100294.97;7682918;32;39030;-72
2022/10/23 02:28:25;;;;;;;37.80;23.33;;;;;;;12.64;69.83;100297.69;7684666;32;40786;-71
2022/10/23 02:32:45;;;;;;;35.92;23.50;;;;;;;12.84;69.11;100296.03;7683126;32;38863;-70
2022/10/23 02:37:02;;;;;;;41.78;23.67;;;;;;;13.02;68.49;100292.75;7684504;32;37308;-71
2022/10/23 02:41:41;;;;;;;38.33;23.85;;;;;;;12.83;68.80;100294.37;7684507;32;39273;-71
2022/10/23 02:46:17;;;;;;;38.28;24.08;;;;;;;12.91;68.50;100297.38;7684448;32;40746;-71
2022/10/23 02:50:52;;;;;;;39.00;23.10;;;;;;;12.89;68.43;100299.59;7684467;32;37745;-71
2022/10/23 02:55:29;;;;;;;38.17;23.17;;;;;;;13.15;67.66;100307.78;7684636;32;37730;-70
2022/10/23 02:59:59;;;;;;;35.90;22.60;;;;;;;13.33;66.93;100309.97;7694788;32;39276;-70
2022/10/23 03:04:17;;;;;;;35.97;21.92;;;;;;;13.25;67.04;100310.50;7684197;32;40756;-70
2022/10/23 03:08:56;;;;;;;37.70;22.62;;;;;;;13.29;66.77;100316.22;7683084;32;38036;-70
2022/10/23 03:13:12;;;;;;;32.20;21.02;;;;;;;13.13;67.14;100318.19;7684113;32;38026;-70
2022/10/23 03:17:29;;;;;;;37.17;23.48;;;;;;;13.09;66.96;100317.91;7684176;32;39422;-70
2022/10/23 03:21:45;;;;;;;37.88;20.95;;;;;;;13.18;66.96;100317.34;7685540;32;39847;-71
2022/10/23 03:26:01;;;;;;;34.40;22.50;;;;;;;13.25;66.49;100323.38;7710353;32;38840;-71
2022/10/23 03:30:18;;;;;;;34.10;22.10;;;;;;;13.13;66.64;100316.25;7710155;32;37464;-70
2022/10/23 03:34:34;;;;;;;33.83;22.05;;;;;;;13.22;66.75;100323.91;7709470;32;39006;-70
2022/10/23 03:38:50;;;;;;;34.10;21.35;;;;;;;13.01;67.52;100326.66;7710132;32;40034;-71
2022/10/23 03:43:06;;;;;;;37.50;21.70;;;;;;;12.99;67.72;100331.59;7710088;32;37975;-70
2022/10/23 03:47:22;;;;;;;35.80;21.42;;;;;;;12.98;67.61;100313.53;7710085;32;38005;-71
2022/10/23 03:51:40;;;;;;;36.28;21.40;;;;;;;13.00;67.77;100316.00;7710128;32;40125;-70
2022/10/23 03:55:56;;;;;;;36.22;21.83;;;;;;;12.90;67.62;100316.81;7709263;32;39856;-70
2022/10/23 04:00:13;;;;;;;37.33;22.10;;;;;;;13.01;67.44;100328.59;7709601;32;38059;-71
2022/10/23 04:04:29;;;;;;;35.63;21.12;;;;;;;12.67;68.60;100334.59;7709505;32;37431;-70
2022/10/23 04:08:45;;;;;;;34.65;20.27;;;;;;;12.82;67.86;100337.34;7709276;32;40004;-71
2022/10/23 04:13:01;;;;;;;31.75;19.70;;;;;;;12.94;66.96;100334.34;7709357;32;39852;-71
2022/10/23 04:17:17;;;;;;;30.55;19.02;;;;;;;12.84;66.25;100334.34;7709265;32;38044;-71
2022/10/23 04:21:33;;;;;;;34.90;21.92;;;;;;;13.00;65.55;100326.94;7709022;32;37392;-71
2022/10/23 04:25:50;;;;;;;33.40;20.77;;;;;;;12.95;66.11;100331.34;7708671;32;39356;-70
2022/10/23 04:30:07;;;;;;;31.73;19.12;;;;;;;12.94;66.02;100317.94;7708904;32;40077;-71
2022/10/23 04:34:24;;;;;;;33.97;18.92;;;;;;;12.88;65.97;100313.53;7708896;32;38107;-70
2022/10/23 04:38:40;;;;;;;33.47;19.27;;;;;;;12.92;65.38;100320.12;7708844;32;37055;-71
2022/10/23 04:42:56;;;;;;;31.52;19.05;;;;;;;13.12;64.19;100324.75;7708308;32;38952;-70
2022/10/23 04:47:12;;;;;;;30.42;19.50;;;;;;;12.99;64.41;100320.66;7709953;32;39904;-71
2022/10/23 04:51:28;;;;;;;35.20;20.15;;;;;;;13.11;64.20;100328.59;7712035;32;37945;-70
2022/10/23 04:55:52;;;;;;;30.70;19.33;;;;;;;12.91;64.94;100329.41;7712421;32;38276;-69
2022/10/23 05:00:11;;;;;;;33.72;19.52;;;;;;;13.04;64.51;100328.03;7712467;32;40032;-70
2022/10/23 05:04:27;;;;;;;27.58;18.00;;;;;;;12.82;64.18;100320.12;7712189;32;40721;-71
2022/10/23 05:08:43;;;;;;;29.10;18.87;;;;;;;12.72;64.15;100326.41;7712316;32;38855;-70
2022/10/23 05:13:00;;;;;;;31.15;19.65;;;;;;;12.83;63.89;100327.22;7711727;32;38413;-70
2022/10/23 05:17:20;;;;;;;37.00;20.45;;;;;;;12.80;64.30;100330.50;7712177;32;39976;-71
2022/10/23 05:21:38;;;;;;;30.40;18.85;;;;;;;13.01;64.12;100342.28;7711861;32;40819;-70
2022/10/23 05:25:54;;;;;;;35.53;21.73;;;;;;;12.92;64.62;100326.41;7698081;32;38746;-71
2022/10/23 05:30:11;;;;;;;71.82;23.05;;;;;;;12.61;65.65;100328.31;7712115;32;37057;-71
2022/10/23 05:34:29;;;;;;;39.67;21.95;;;;;;;11.88;69.36;100351.03;7711984;32;40131;-71
2022/10/23 05:38:46;;;;;;;34.83;20.27;;;;;;;12.19;68.38;100351.19;7711990;32;39853;-70
2022/10/23 05:43:02;;;;;;;178.25;25.60;;;;;;;12.25;67.88;100354.78;7711360;32;38901;-70
2022/10/23 05:47:18;;;;;;;47.03;22.13;;;;;;;12.08;68.56;100360.47;7711934;32;36962;-71
2022/10/23 05:51:38;;;;;;;186.05;25.37;;;;;;;12.22;68.03;100356.13;7711935;32;39017;-71
2022/10/23 05:55:55;;;;;;;101.40;20.92;;;;;;;12.11;67.93;100370.88;7711587;32;40038;-70
2022/10/23 06:00:11;;;;;;;302.75;29.23;;;;;;;11.32;72.89;100380.78;7710123;32;36494;-70
2022/10/23 06:04:28;;;;;;;214.40;25.75;;;;;;;11.98;69.61;100378.44;7711555;32;37593;-70
2022/10/23 06:08:44;;;;;;;209.27;25.00;;;;;;;12.22;68.48;100380.72;7711669;32;39907;-70
2022/10/23 06:13:00;;;;;;;257.37;26.90;;;;;;;11.62;70.83;100399.25;7711633;32;39643;-70
2022/10/23 06:17:16;;;;;;;170.05;24.37;;;;;;;11.68;71.01;100398.22;7711363;32;38283;-71
2022/10/23 06:21:36;;;;;;;90.78;24.17;;;;;;;12.10;69.74;100404.72;7709979;32;37506;-71
2022/10/23 06:25:54;;;;;;;111.75;24.83;;;;;;;12.22;69.52;100394.41;7711142;32;39395;-70
2022/10/23 06:30:11;;;;;;;138.07;25.58;;;;;;;12.33;69.65;100390.63;7698027;32;39906;-70
2022/10/23 06:34:27;;;;;;;103.32;23.38;;;;;;;12.34;69.71;100399.63;7710925;32;38010;-69
2022/10/23 06:38:43;;;;;;;77.68;24.35;;;;;;;12.21;70.14;100395.47;7711251;32;37250;-70
2022/10/23 06:42:59;;;;;;;313.33;33.08;;;;;;;12.11;70.89;100392.72;7710742;32;39265;-70
2022/10/23 06:47:16;;;;;;;109.22;24.67;;;;;;;11.65;72.21;100407.75;7711040;32;39975;-70
2022/10/23 06:51:37;;;;;;;361.42;33.42;;;;;;;11.91;70.57;100410.66;7711229;32;38766;-70
2022/10/23 06:55:57;;;;;;;226.98;29.05;;;;;;;11.99;70.81;100412.88;7710962;32;37407;-70
2022/10/23 07:00:14;;;;;;;407.38;31.23;;;;;;;12.26;70.38;100400.97;7697933;32;39435;-72
2022/10/23 07:04:30;;;;;;;227.40;28.85;;;;;;;12.61;69.29;100395.84;7710720;32;40855;-80
2022/10/23 07:08:46;;;;;;;134.60;25.88;;;;;;;11.99;71.77;100406.59;7710440;32;37769;-72
2022/10/23 07:13:02;;;;;;;399.08;35.50;;;;;;;12.45;71.11;100408.69;7710647;32;38112;-70
2022/10/23 07:17:18;;;;;;;259.35;28.25;;;;;;;12.33;71.23;100412.50;7710651;32;39339;-72
2022/10/23 07:21:35;;;;;;;124.32;26.30;;;;;;;12.50;72.01;100409.50;7710431;32;40823;-71
2022/10/23 07:25:51;;;;;;;110.10;26.98;;;;;;;12.82;70.81;100405.75;7710344;32;37790;-72
2022/10/23 07:30:08;;;;;;;221.13;27.45;;;;;;;12.70;71.25;100422.41;7710372;32;37249;-70
2022/10/23 07:34:24;;;;;;;49.45;25.58;;;;;;;13.01;69.61;100418.91;7710228;32;40042;-71
2022/10/23 07:38:40;;;;;;;54.70;25.33;;;;;;;13.05;69.62;100415.34;7710012;32;40729;-70
2022/10/23 07:42:57;;;;;;;104.38;24.67;;;;;;;13.37;69.23;100408.00;7709994;32;38166;-72
2022/10/23 07:47:13;;;;;;;38.63;22.87;;;;;;;13.33;69.05;100413.19;7707466;32;37663;-71
2022/10/23 07:51:29;;;;;;;36.75;22.65;;;;;;;13.55;69.06;100404.66;7705846;32;40050;-72
2022/10/23 07:56:16;;;;;;;40.90;22.80;;;;;;;13.78;68.44;100400.53;7707918;32;39697;-71
2022/10/23 08:00:32;;;;;;;42.83;23.05;;;;;;;14.07;66.87;100408.09;7701809;32;38145;-71
2022/10/23 08:04:49;;;;;;;135.45;26.40;;;;;;;14.07;67.21;100405.34;7706896;32;37195;-72
2022/10/23 08:09:05;;;;;;;41.03;23.85;;;;;;;13.85;67.57;100419.41;7707395;32;39299;-71
2022/10/23 08:13:22;;;;;;;38.78;22.27;;;;;;;14.37;67.03;100415.38;7707109;32;39700;-72
2022/10/23 08:17:38;;;;;;;37.60;21.83;;;;;;;14.73;66.24;100412.47;7706943;32;37726;-72
2022/10/23 08:21:56;;;;;;;36.85;21.95;;;;;;;14.99;65.55;100407.59;7707835;32;37524;-72
2022/10/23 08:26:12;;;;;;;33.25;21.08;;;;;;;14.94;65.16;100404.91;7708938;32;39891;-72
2022/10/23 08:30:28;;;;;;;29.23;18.20;;;;;;;15.50;64.03;100397.28;7712274;32;39899;-72
2022/10/23 08:34:45;;;;;;;32.55;19.35;;;;;;;15.99;62.75;100376.97;7712685;32;38161;-71
2022/10/23 08:39:01;;;;;;;27.08;17.00;;;;;;;16.66;61.96;100389.81;7712768;32;37217;-71
2022/10/23 08:43:40;;;;;;;25.42;14.50;;;;;;;16.93;59.78;100382.84;7712740;32;39272;-72
2022/10/23 08:48:03;;;;;;;34.25;20.85;;;;;;;17.40;58.40;100389.22;7711320;32;40770;-71
2022/10/23 08:53:07;;;;;;;33.17;20.03;;;;;;;15.43;63.18;100394.06;7711541;32;38053;-72
2022/10/23 08:57:32;;;;;;;26.33;17.17;;;;;;;16.19;60.61;100380.59;7705579;32;37224;-69
2022/10/23 09:02:12;;;;;;;25.52;15.20;;;;;;;16.20;60.74;100382.22;7712384;32;40116;-77
2022/10/23 09:06:34;;;;;;;28.80;16.40;;;;;;;16.85;61.58;100374.16;7712394;32;39580;-78
2022/10/23 09:10:57;;;;;;;25.75;17.27;;;;;;;17.07;60.45;100375.44;7712163;32;38765;-72
2022/10/23 09:15:13;;;;;;;;;;;;;;;17.48;56.31;100379.44;7712654;32;37453;-72
2022/10/23 09:19:30;;;;;;;28.55;15.32;;;;;;;17.06;56.57;100384.84;7712568;32;39652;-72
2022/10/23 09:23:47;;;;;;;25.35;14.13;;;;;;;17.83;55.59;100384.28;7711983;32;40019;-71
2022/10/23 09:28:04;;;;;;;22.02;13.88;;;;;;;17.98;56.16;100380.41;7711969;32;36200;-71
2022/10/23 09:32:36;;;;;;;19.42;12.68;;;;;;;18.50;53.72;100379.31;7711551;32;37176;-72
2022/10/23 09:36:59;;;;;;;20.50;13.23;;;;;;;18.84;53.06;100370.53;7700157;32;40269;-72
2022/10/23 09:41:26;;;;;;;22.23;14.48;;;;;;;18.28;54.02;100360.75;7711966;32;40739;-72
2022/10/23 09:45:42;;;;;;;18.83;12.63;;;;;;;18.11;54.66;100362.22;7686470;32;37981;-73
2022/10/23 09:49:58;;;;;;;21.73;13.10;;;;;;;18.81;54.10;100362.03;7711588;32;37106;-74
2022/10/23 09:54:15;;;;;;;17.50;11.20;;;;;;;18.24;55.64;100368.84;7711665;32;39396;-73
2022/10/23 09:58:38;;;;;;;17.42;11.32;;;;;;;18.57;53.45;100369.50;7697388;32;40817;-72
2022/10/23 10:03:03;;;;;;;16.17;9.13;;;;;;;19.10;53.32;100361.63;7698435;32;38612;-73
2022/10/23 10:07:29;;;;;;;14.55;8.43;;;;;;;19.48;50.78;100356.47;7711678;32;37772;-72
2022/10/23 10:11:53;;;;;;;12.68;6.78;;;;;;;19.73;51.87;100365.22;7711625;32;39465;-74
2022/10/23 10:16:25;;;;;;;11.45;5.90;;;;;;;20.01;49.98;100356.72;7697966;32;40658;-75
2022/10/23 10:21:09;;;;;;;11.95;6.25;;;;;;;20.05;48.92;100349.37;7711513;32;38011;-74
2022/10/23 10:25:36;;;;;;;13.13;7.25;;;;;;;20.59;47.37;100336.09;7710845;32;38398;-75
2022/10/23 10:30:17;;;;;;;16.92;6.03;;;;;;;20.38;49.04;100337.88;7711611;32;39226;-77
2022/10/23 10:34:36;;;;;;;10.20;5.18;;;;;;;20.37;47.80;100316.84;7698589;32;40776;-75
2022/10/23 10:38:58;;;;;;;9.35;4.87;;;;;;;20.60;47.21;100320.28;7710663;32;37756;-75
2022/10/23 10:43:24;;;;;;;10.07;5.53;;;;;;;21.39;46.14;100302.38;7683413;32;37537;-76
2022/10/23 10:48:02;;;;;;;8.80;4.30;;;;;;;21.35;45.77;100295.88;7684253;32;39310;-78
2022/10/23 10:52:28;;;;;;;8.45;4.40;;;;;;;22.40;44.18;100284.16;7689761;32;40886;-76
2022/10/23 10:56:46;;;;;;;11.40;5.07;;;;;;;20.62;46.94;100280.06;7711178;32;38602;-76
2022/10/23 11:01:12;;;;;;;9.27;4.30;;;;;;;21.22;45.60;100280.25;7710578;32;35873;-75
2022/10/23 11:05:33;;;;;;;7.10;4.60;;;;;;;21.63;45.70;100281.59;7694679;32;39428;-78
2022/10/23 11:09:50;;;;;;;10.02;5.30;;;;;;;21.50;45.30;100277.06;7710990;32;40772;-78
2022/10/23 11:14:33;;;;;;;7.55;4.18;;;;;;;21.70;45.11;100268.00;7710624;32;37958;-78
2022/10/23 11:19:16;;;;;;;7.60;4.18;;;;;;;22.46;43.29;100257.81;7708799;32;36898;-79
2022/10/23 11:23:38;;;;;;;7.50;3.80;;;;;;;21.73;44.48;100258.16;7704891;32;39915;-79
2022/10/23 11:28:13;;;;;;;12.23;6.60;;;;;;;23.93;41.48;100241.72;7708364;32;39636;-81
2022/10/23 11:32:48;;;;;;;7.87;4.75;;;;;;;23.15;42.05;100240.78;7710284;32;37741;-80
2022/10/23 11:37:05;;;;;;;5.68;3.20;;;;;;;23.79;41.82;100231.72;7709570;32;37563;-81
2022/10/23 11:41:24;;;;;;;8.77;4.50;;;;;;;24.27;39.21;100228.38;7696671;32;39411;-80
2022/10/23 11:45:42;;;;;;;6.07;3.30;;;;;;;24.04;39.90;100223.34;7696574;32;41001;-80
2022/10/23 11:50:07;;;;;;;6.50;3.33;;;;;;;24.03;38.31;100220.94;7696534;32;37640;-82
2022/10/23 11:54:26;;;;;;;8.93;5.43;;;;;;;24.41;38.70;100217.66;7710134;32;37172;-80
2022/10/23 11:58:55;;;;;;;8.65;4.97;;;;;;;24.20;39.71;100217.84;7698946;32;39361;-81
2022/10/23 12:03:21;;;;;;;9.77;4.93;;;;;;;25.29;37.53;100205.66;7697707;32;40864;-79
2022/10/23 12:07:40;;;;;;;7.18;4.18;;;;;;;25.10;38.58;100197.97;7698915;32;38030;-79
2022/10/23 12:12:08;;;;;;;7.87;3.42;;;;;;;24.31;40.31;100213.37;7699288;32;37363;-80
2022/10/23 12:16:35;;;;;;;5.35;2.72;;;;;;;25.34;37.93;100208.16;7709750;32;39008;-77
2022/10/23 12:21:02;;;;;;;7.25;3.50;;;;;;;26.64;34.59;100194.19;7710509;32;40492;-80
2022/10/23 12:25:32;;;;;;;6.18;3.60;;;;;;;27.07;34.88;100183.75;7699452;32;37935;-82
2022/10/23 12:30:07;;;;;;;11.88;3.75;;;;;;;26.60;35.80;100175.31;7686497;32;37777;-79
2022/10/23 12:34:33;;;;;;;8.32;3.80;;;;;;;26.36;36.17;100176.47;7712869;32;39911;-80
2022/10/23 12:38:49;;;;;;;8.55;5.10;;;;;;;25.44;37.91;100176.06;7699735;32;39951;-79
2022/10/23 12:43:23;;;;;;;14.98;5.70;;;;;;;25.24;38.33;100164.84;7712387;32;38812;-78
2022/10/23 12:47:39;;;;;;;10.77;6.78;;;;;;;24.50;40.51;100156.19;7712409;32;37096;-78
2022/10/23 12:52:01;;;;;;;12.13;7.53;;;;;;;24.34;41.58;100158.94;7712503;32;40146;-78
2022/10/23 12:56:17;;;;;;;14.55;7.45;;;;;;;24.33;41.47;100154.53;7699367;32;40851;-79
2022/10/23 13:00:34;;;;;;;12.18;8.00;;;;;;;24.77;41.63;100150.91;7698509;32;38856;-81
2022/10/23 13:04:52;;;;;;;14.18;8.25;;;;;;;25.34;39.98;100141.19;7712030;32;37197;-78
2022/10/23 13:09:19;;;;;;;11.45;6.90;;;;;;;24.93;40.89;100140.59;7709848;32;38367;-78
2022/10/23 13:13:35;;;;;;;11.18;5.97;;;;;;;24.29;42.40;100143.28;7710812;32;39989;-77
2022/10/23 13:17:57;;;;;;;10.32;5.40;;;;;;;23.97;42.98;100129.28;7712191;32;38054;-76
2022/10/23 13:22:20;;;;;;;9.90;5.43;;;;;;;23.76;43.10;100125.84;7712085;32;37086;-75
2022/10/23 13:26:43;;;;;;;9.25;5.25;;;;;;;23.59;43.77;100126.94;7698656;32;40043;-77
2022/10/23 13:31:12;;;;;;;10.48;4.75;;;;;;;23.43;43.93;100135.19;7712175;32;39748;-76
2022/10/23 13:35:28;;;;;;;8.20;4.12;;;;;;;23.02;44.51;100131.50;7711998;32;38546;-75
2022/10/23 13:39:44;;;;;;;7.32;3.90;;;;;;;23.22;43.41;100125.03;7712147;32;37237;-74
2022/10/23 13:44:01;;;;;;;6.47;3.40;;;;;;;22.96;43.35;100119.00;7712109;32;39617;-74
2022/10/23 13:48:18;;;;;;;9.18;3.87;;;;;;;22.80;41.71;100119.69;7711930;32;39892;-74
2022/10/23 13:52:34;;;;;;;7.93;3.50;;;;;;;22.81;42.52;100117.69;7711908;32;38119;-74
2022/10/23 13:56:51;;;;;;;5.70;3.05;;;;;;;22.69;40.99;100118.50;7712088;32;36337;-75
2022/10/23 14:01:15;;;;;;;6.03;3.05;;;;;;;22.11;40.18;100110.94;7711889;32;40044;-75
2022/10/23 14:05:32;;;;;;;6.45;3.12;;;;;;;21.91;40.08;100111.78;7698488;32;40940;-75
2022/10/23 14:09:48;;;;;;;5.32;3.10;;;;;;;21.66;41.16;100100.59;7711215;32;37610;-76
2022/10/23 14:14:05;;;;;;;5.03;2.55;;;;;;;21.81;40.44;100103.88;7711606;32;37745;-75
2022/10/23 14:18:22;;;;;;;6.03;2.62;;;;;;;21.48;41.53;100104.63;7711041;32;39408;-72
2022/10/23 14:22:38;;;;;;;5.15;2.33;;;;;;;21.29;40.67;100114.19;7710816;32;40554;-72
2022/10/23 14:26:56;;;;;;;3.53;2.20;;;;;;;21.44;39.82;100103.62;7711283;32;37681;-74
2022/10/23 14:31:15;;;;;;;3.30;1.85;;;;;;;21.47;40.44;100114.94;7711113;32;36778;-73
2022/10/23 14:35:31;;;;;;;4.03;1.77;;;;;;;21.01;41.11;100105.56;7711294;32;39332;-74
2022/10/23 14:39:47;;;;;;;3.40;1.83;;;;;;;21.01;42.63;100097.25;7711128;32;40406;-74
2022/10/23 14:44:05;;;;;;;4.00;2.35;;;;;;;21.01;41.82;100095.28;7710202;32;38876;-73
2022/10/23 14:48:23;;;;;;;3.22;2.10;;;;;;;20.75;42.83;100094.63;7710002;32;37759;-74
2022/10/23 14:52:41;;;;;;;3.70;2.12;;;;;;;19.97;45.34;100088.13;7711045;32;38548;-74
2022/10/23 14:56:57;;;;;;;5.18;2.72;;;;;;;20.42;43.75;100084.94;7711193;32;42656;-74
2022/10/23 15:01:13;;;;;;;4.03;2.58;;;;;;;20.46;45.09;100087.84;7710317;32;38736;-74
2022/10/23 15:05:29;;;;;;;5.57;2.70;;;;;;;20.49;45.24;100086.34;7710559;32;37283;-76
2022/10/23 15:09:46;;;;;;;5.00;3.03;;;;;;;20.28;45.72;100087.06;7710593;32;39643;-73
2022/10/23 15:14:02;;;;;;;6.10;3.08;;;;;;;20.44;45.52;100081.84;7709998;32;39965;-73
2022/10/23 15:18:20;;;;;;;4.55;2.97;;;;;;;20.51;45.33;100079.34;7710150;32;37653;-73
2022/10/23 15:22:36;;;;;;;5.45;3.25;;;;;;;20.23;46.46;100074.25;7710369;32;36804;-74
2022/10/23 15:26:52;;;;;;;6.53;3.25;;;;;;;20.04;47.31;100082.06;7710860;32;39400;-73
2022/10/23 15:31:29;;;;;;;7.12;3.50;;;;;;;19.97;47.74;100065.16;7710510;32;39978;-74
2022/10/23 15:35:45;;;;;;;6.55;3.28;;;;;;;19.19;50.08;100063.22;7710450;32;37999;-73
2022/10/23 15:40:02;;;;;;;6.57;3.20;;;;;;;19.00;51.38;100071.78;7709871;32;37976;-74
2022/10/23 15:44:20;;;;;;;5.12;3.12;;;;;;;19.08;51.58;100077.34;7709874;32;39855;-73
2022/10/23 15:48:36;;;;;;;9.98;4.00;;;;;;;19.13;51.81;100096.53;7710210;32;41340;-73
2022/10/23 15:52:52;;;;;;;7.18;3.80;;;;;;;19.07;52.09;100105.28;7710151;32;37582;-74
2022/10/23 15:57:09;;;;;;;10.32;4.37;;;;;;;19.09;52.24;100103.84;7710148;32;37024;-74
2022/10/23 16:01:26;;;;;;;8.75;4.03;;;;;;;18.99;52.36;100114.34;7710088;32;40111;-74
2022/10/23 16:05:42;;;;;;;6.78;3.60;;;;;;;19.26;51.79;100113.28;7709122;32;40121;-74
2022/10/23 16:09:58;;;;;;;5.62;2.75;;;;;;;19.04;52.42;100105.91;7709664;32;38724;-75
2022/10/23 16:14:16;;;;;;;4.30;2.30;;;;;;;19.09;52.58;100120.41;7709714;32;37067;-74
2022/10/23 16:18:32;;;;;;;5.03;2.95;;;;;;;19.00;52.69;100125.09;7709636;32;39932;-74
2022/10/23 16:22:48;;;;;;;3.53;2.08;;;;;;;19.35;51.58;100127.12;7709163;32;39572;-76
2022/10/23 16:27:05;;;;;;;6.00;2.90;;;;;;;19.38;51.97;100120.94;7709285;32;37582;-76
2022/10/23 16:31:24;;;;;;;6.80;3.08;;;;;;;19.05;52.88;100124.94;7708312;32;38267;-76
2022/10/23 16:35:40;;;;;;;5.37;3.00;;;;;;;19.34;52.14;100131.84;7706369;32;40103;-76
2022/10/23 16:39:57;;;;;;;6.15;3.15;;;;;;;19.37;52.31;100128.44;7707868;32;40810;-76
2022/10/23 16:44:13;;;;;;;5.15;3.15;;;;;;;19.48;52.33;100104.84;7710094;32;38151;-71
2022/10/23 16:48:30;;;;;;;6.28;3.10;;;;;;;19.28;52.99;100099.94;7711486;32;36981;-74
2022/10/23 16:52:46;;;;;;;4.18;2.67;;;;;;;19.16;53.22;100116.34;7711646;32;39040;-74
2022/10/23 16:57:05;;;;;;;4.22;2.60;;;;;;;19.17;53.47;100129.03;7709065;32;40441;-73
2022/10/23 17:01:25;;;;;;;7.12;3.35;;;;;;;19.29;53.52;100145.81;7709090;32;38006;-73
2022/10/23 17:05:41;;;;;;;6.07;3.15;;;;;;;19.07;54.29;100163.31;7707109;32;36990;-72
2022/10/23 17:09:57;;;;;;;6.25;3.47;;;;;;;19.21;53.94;100161.22;7710749;32;39490;-73
2022/10/23 17:14:18;;;;;;;6.45;4.03;;;;;;;18.89;55.02;100154.16;7710611;32;39730;-74
2022/10/23 17:18:35;;;;;;;7.60;3.97;;;;;;;19.08;55.31;100146.41;7710454;32;37725;-73
2022/10/23 17:22:58;;;;;;;6.32;3.67;;;;;;;19.20;54.87;100131.19;7710513;32;36729;-72
2022/10/23 17:27:14;;;;;;;9.57;3.87;;;;;;;19.40;54.21;100140.78;7711191;32;39306;-73
2022/10/23 17:31:33;;;;;;;9.90;4.22;;;;;;;19.18;55.02;100133.41;7710992;32;40055;-75
2022/10/23 17:35:51;;;;;;;10.30;5.12;;;;;;;19.28;54.85;100133.13;7711538;32;39185;-76
2022/10/23 17:40:07;;;;;;;7.72;4.60;;;;;;;19.33;54.53;100124.69;7710317;32;37906;-74
2022/10/23 17:44:24;;;;;;;9.63;5.07;;;;;;;19.09;55.18;100128.72;7711028;32;40101;-76
2022/10/23 17:48:42;;;;;;;7.93;4.78;;;;;;;19.22;54.92;100134.41;7711194;32;41017;-75
2022/10/23 17:52:58;;;;;;;9.35;4.90;;;;;;;19.18;54.72;100123.19;7710203;32;36926;-75
2022/10/23 17:57:14;;;;;;;9.27;5.53;;;;;;;18.94;55.78;100134.66;7710566;32;37623;-74
2022/10/23 18:01:31;;;;;;;7.40;4.65;;;;;;;18.89;55.86;100138.38;7711675;32;40125;-74
2022/10/23 18:05:47;;;;;;;7.97;4.82;;;;;;;18.69;56.44;100134.19;7703948;32;233233;-74
2022/10/23 18:10:04;;;;;;;11.80;4.37;;;;;;;18.95;55.61;100119.69;7683525;32;38023;-73
2022/10/23 18:14:21;;;;;;;8.75;5.00;;;;;;;18.80;56.15;100125.63;7684870;32;37958;-74
2022/10/23 18:18:50;;;;;;;10.25;5.15;;;;;;;18.86;55.99;100116.91;7692294;32;40642;-76
2022/10/23 18:23:06;;;;;;;10.18;5.30;;;;;;;18.94;55.83;100121.66;7711103;32;40523;-76
2022/10/23 18:27:23;;;;;;;10.55;5.45;;;;;;;18.99;55.92;100120.72;7710955;32;38770;-75
2022/10/23 18:31:40;;;;;;;8.75;5.05;;;;;;;18.97;56.00;100111.91;7711407;32;37896;-74
2022/10/23 18:35:56;;;;;;;11.93;5.68;;;;;;;18.95;56.05;100122.47;7710876;32;39062;-75
2022/10/23 18:40:12;;;;;;;10.35;5.00;;;;;;;18.96;56.04;100110.28;7711057;32;39692;-74
2022/10/23 18:44:29;;;;;;;11.70;6.03;;;;;;;18.82;56.70;100110.41;7710453;32;37987;-75
2022/10/23 18:48:46;;;;;;;10.27;5.20;;;;;;;18.74;56.70;100087.09;7711104;32;37924;-72
2022/10/23 18:53:02;;;;;;;13.02;6.00;;;;;;;19.14;55.61;100094.56;7710722;32;39954;-73
2022/10/23 18:57:19;;;;;;;10.20;5.75;;;;;;;19.17;55.71;100109.69;7710525;32;39971;-74
2022/10/23 19:01:35;;;;;;;12.52;5.78;;;;;;;18.84;56.78;100112.84;7710381;32;37960;-72
2022/10/23 19:05:52;;;;;;;11.18;5.75;;;;;;;19.00;56.17;100125.09;7710231;32;37958;-74
2022/10/23 19:10:10;;;;;;;8.80;5.12;;;;;;;18.83;56.80;100139.66;7710201;32;39293;-74
2022/10/23 19:14:28;;;;;;;9.20;5.40;;;;;;;18.88;56.72;100127.66;7709302;32;40000;-74
2022/10/23 19:18:54;;;;;;;10.32;6.37;;;;;;;19.02;56.28;100111.75;7709227;32;38002;-74
2022/10/23 19:23:10;;;;;;;12.70;6.00;;;;;;;18.92;56.76;100098.25;7695603;32;38082;-75
2022/10/23 19:27:30;;;;;;;11.65;5.82;;;;;;;18.69;57.65;100108.53;7709321;32;40368;-75
2022/10/23 19:31:48;;;;;;;11.20;6.03;;;;;;;19.19;55.82;100090.84;7709321;32;39937;-75
2022/10/23 19:36:05;;;;;;;10.50;6.35;;;;;;;19.17;55.74;100091.16;7709134;32;38829;-75
2022/10/23 19:40:28;;;;;;;13.15;7.28;;;;;;;19.15;55.97;100085.16;7707964;32;37242;-73
2022/10/23 19:44:45;;;;;;;14.77;7.12;;;;;;;19.02;56.32;100091.63;7709012;32;39563;-74
2022/10/23 19:49:01;;;;;;;12.30;7.18;;;;;;;18.86;56.88;100105.06;7708842;32;39931;-74